sensor_id;sensor_type;location;lat;lon;timestamp;temperature;humidity
36654;DHT22;22650;49.350;20.898;2022-11-15T00:00:48;4.50;99.90
36654;DHT22;22650;49.350;20.898;2022-11-15T00:03:40;4.50;99.90
36654;DHT22;22650;49.350;20.898;2022-11-15T00:06:32;4.50;99.90
36654;DHT22;22650;49.350;20.898;2022-11-15T00:09:24;4.50;99.90
36654;DHT22;22650;49.350;20.898;2022-11-15T00:12:17;4.60;99.90
36654;DHT22;22650;49.350;20.898;2022-11-15T00:15:10;4.60;99.90
36654;DHT22;22650;49.350;20.898;2022-11-15T00:18:01;4.60;99.90
36654;DHT22;22650;49.350;20.898;2022-11-15T00:20:54;4.60;99.90
36654;DHT22;22650;49.350;20.898;2022-11-15T00:23:46;4.60;99.90
36654;DHT22;22650;49.350;20.898;2022-11-15T00:26:38;4.50;99.90
36654;DHT22;22650;49.350;20.898;2022-11-15T00:29:31;4.50;99.90
36654;DHT22;22650;49.350;20.898;2022-11-15T00:32:23;4.50;99.90
36654;DHT22;22650;49.350;20.898;2022-11-15T00:35:15;4.50;99.90
36654;DHT22;22650;49.350;20.898;2022-11-15T00:38:07;4.50;99.90
36654;DHT22;22650;49.350;20.898;2022-11-15T00:40:59;4.50;99.90
36654;DHT22;22650;49.350;20.898;2022-11-15T00:43:58;4.50;99.90
36654;DHT22;22650;49.350;20.898;2022-11-15T00:46:52;4.50;99.90
36654;DHT22;22650;49.350;20.898;2022-11-15T00:49:45;4.40;99.90
36654;DHT22;22650;49.350;20.898;2022-11-15T00:52:37;4.40;99.90
36654;DHT22;22650;49.350;20.898;2022-11-15T00:55:29;4.40;99.90
36654;DHT22;22650;49.350;20.898;2022-11-15T00:58:21;4.40;99.90
36654;DHT22;22650;49.350;20.898;2022-11-15T01:01:14;4.40;99.90
36654;DHT22;22650;49.350;20.898;2022-11-15T01:04:07;4.40;99.90
36654;DHT22;22650;49.350;20.898;2022-11-15T01:06:59;4.40;99.90
36654;DHT22;22650;49.350;20.898;2022-11-15T01:09:51;4.40;99.90
36654;DHT22;22650;49.350;20.898;2022-11-15T01:12:43;4.40;99.90
36654;DHT22;22650;49.350;20.898;2022-11-15T01:15:39;4.40;99.90
36654;DHT22;22650;49.350;20.898;2022-11-15T01:18:31;4.40;99.90
36654;DHT22;22650;49.350;20.898;2022-11-15T01:21:25;4.40;99.90
36654;DHT22;22650;49.350;20.898;2022-11-15T01:24:17;4.40;99.90
36654;DHT22;22650;49.350;20.898;2022-11-15T01:27:10;4.40;99.90
36654;DHT22;22650;49.350;20.898;2022-11-15T01:30:02;4.40;99.90
36654;DHT22;22650;49.350;20.898;2022-11-15T01:32:54;4.50;99.90
36654;DHT22;22650;49.350;20.898;2022-11-15T01:35:46;4.50;99.90
36654;DHT22;22650;49.350;20.898;2022-11-15T01:38:39;4.50;99.90
36654;DHT22;22650;49.350;20.898;2022-11-15T01:41:33;4.50;99.90
36654;DHT22;22650;49.350;20.898;2022-11-15T01:44:42;4.50;99.90
36654;DHT22;22650;49.350;20.898;2022-11-15T01:47:37;4.50;99.90
36654;DHT22;22650;49.350;20.898;2022-11-15T01:50:31;4.50;99.90
36654;DHT22;22650;49.350;20.898;2022-11-15T01:53:25;4.50;99.90
36654;DHT22;22650;49.350;20.898;2022-11-15T01:56:22;4.50;99.90
36654;DHT22;22650;49.350;20.898;2022-11-15T01:59:15;4.50;99.90
36654;DHT22;22650;49.350;20.898;2022-11-15T02:02:07;4.60;99.90
36654;DHT22;22650;49.350;20.898;2022-11-15T02:04:59;4.50;99.90
36654;DHT22;22650;49.350;20.898;2022-11-15T02:07:52;4.60;99.90
36654;DHT22;22650;49.350;20.898;2022-11-15T02:10:44;4.60;99.90
36654;DHT22;22650;49.350;20.898;2022-11-15T02:13:37;4.60;99.90
36654;DHT22;22650;49.350;20.898;2022-11-15T02:16:38;4.60;99.90
36654;DHT22;22650;49.350;20.898;2022-11-15T02:23:31;4.60;99.90
36654;DHT22;22650;49.350;20.898;2022-11-15T02:26:48;4.60;99.90
36654;DHT22;22650;49.350;20.898;2022-11-15T02:30:04;4.70;99.90
36654;DHT22;22650;49.350;20.898;2022-11-15T02:33:02;4.60;99.90
36654;DHT22;22650;49.350;20.898;2022-11-15T02:35:59;4.60;99.90
36654;DHT22;22650;49.350;20.898;2022-11-15T02:38:56;4.60;99.90
36654;DHT22;22650;49.350;20.898;2022-11-15T02:41:53;4.60;99.90
36654;DHT22;22650;49.350;20.898;2022-11-15T02:44:46;4.70;99.90
36654;DHT22;22650;49.350;20.898;2022-11-15T02:47:41;4.60;99.90
36654;DHT22;22650;49.350;20.898;2022-11-15T02:50:35;4.60;99.90
36654;DHT22;22650;49.350;20.898;2022-11-15T02:53:28;4.70;99.90
36654;DHT22;22650;49.350;20.898;2022-11-15T02:56:20;4.60;99.90
36654;DHT22;22650;49.350;20.898;2022-11-15T02:59:23;4.60;99.90
36654;DHT22;22650;49.350;20.898;2022-11-15T03:02:26;4.50;99.90
36654;DHT22;22650;49.350;20.898;2022-11-15T03:05:30;4.50;99.90
36654;DHT22;22650;49.350;20.898;2022-11-15T03:08:31;4.40;99.90
36654;DHT22;22650;49.350;20.898;2022-11-15T03:11:24;4.50;99.90
36654;DHT22;22650;49.350;20.898;2022-11-15T03:14:22;4.50;99.90
36654;DHT22;22650;49.350;20.898;2022-11-15T03:17:18;4.50;99.90
36654;DHT22;22650;49.350;20.898;2022-11-15T03:20:16;4.40;99.90
36654;DHT22;22650;49.350;20.898;2022-11-15T03:23:10;4.30;99.90
36654;DHT22;22650;49.350;20.898;2022-11-15T03:26:07;4.30;99.90
36654;DHT22;22650;49.350;20.898;2022-11-15T03:29:03;4.30;99.90
36654;DHT22;22650;49.350;20.898;2022-11-15T03:32:00;4.20;99.90
36654;DHT22;22650;49.350;20.898;2022-11-15T03:34:56;4.30;99.90
36654;DHT22;22650;49.350;20.898;2022-11-15T03:37:52;4.30;99.90
36654;DHT22;22650;49.350;20.898;2022-11-15T03:40:52;4.20;99.90
36654;DHT22;22650;49.350;20.898;2022-11-15T03:43:52;4.20;99.90
36654;DHT22;22650;49.350;20.898;2022-11-15T03:46:49;4.20;99.90
36654;DHT22;22650;49.350;20.898;2022-11-15T03:49:46;4.10;99.90
36654;DHT22;22650;49.350;20.898;2022-11-15T03:52:41;4.10;99.90
36654;DHT22;22650;49.350;20.898;2022-11-15T03:55:34;4.00;99.90
36654;DHT22;22650;49.350;20.898;2022-11-15T03:58:26;4.00;99.90
36654;DHT22;22650;49.350;20.898;2022-11-15T04:01:19;3.90;99.90
36654;DHT22;22650;49.350;20.898;2022-11-15T04:04:11;3.90;99.90
36654;DHT22;22650;49.350;20.898;2022-11-15T04:07:03;3.90;99.90
36654;DHT22;22650;49.350;20.898;2022-11-15T04:09:55;3.90;99.90
36654;DHT22;22650;49.350;20.898;2022-11-15T04:12:53;3.80;99.90
36654;DHT22;22650;49.350;20.898;2022-11-15T04:15:46;3.80;99.90
36654;DHT22;22650;49.350;20.898;2022-11-15T04:18:39;3.80;99.90
36654;DHT22;22650;49.350;20.898;2022-11-15T04:21:31;3.80;99.90
36654;DHT22;22650;49.350;20.898;2022-11-15T04:24:41;3.80;99.90
36654;DHT22;22650;49.350;20.898;2022-11-15T04:27:33;3.70;99.90
36654;DHT22;22650;49.350;20.898;2022-11-15T04:30:25;3.60;99.90
36654;DHT22;22650;49.350;20.898;2022-11-15T04:33:17;3.60;99.90
36654;DHT22;22650;49.350;20.898;2022-11-15T04:36:10;3.60;99.90
36654;DHT22;22650;49.350;20.898;2022-11-15T04:39:25;3.60;99.90
36654;DHT22;22650;49.350;20.898;2022-11-15T04:42:17;3.50;99.90
36654;DHT22;22650;49.350;20.898;2022-11-15T04:45:09;3.50;99.90
36654;DHT22;22650;49.350;20.898;2022-11-15T04:48:02;3.40;99.90
36654;DHT22;22650;49.350;20.898;2022-11-15T04:50:54;3.40;99.90
36654;DHT22;22650;49.350;20.898;2022-11-15T04:53:47;3.30;99.90
36654;DHT22;22650;49.350;20.898;2022-11-15T04:56:39;3.40;99.90
36654;DHT22;22650;49.350;20.898;2022-11-15T04:59:31;3.40;99.90
36654;DHT22;22650;49.350;20.898;2022-11-15T05:02:23;3.40;99.90
36654;DHT22;22650;49.350;20.898;2022-11-15T05:05:35;3.30;99.90
36654;DHT22;22650;49.350;20.898;2022-11-15T05:08:26;3.30;99.90
36654;DHT22;22650;49.350;20.898;2022-11-15T05:11:20;3.40;99.90
36654;DHT22;22650;49.350;20.898;2022-11-15T05:14:12;3.30;99.90
36654;DHT22;22650;49.350;20.898;2022-11-15T05:17:04;3.30;99.90
36654;DHT22;22650;49.350;20.898;2022-11-15T05:19:56;3.30;99.90
36654;DHT22;22650;49.350;20.898;2022-11-15T05:22:48;3.30;99.90
36654;DHT22;22650;49.350;20.898;2022-11-15T05:25:39;3.20;99.90
36654;DHT22;22650;49.350;20.898;2022-11-15T05:28:33;3.20;99.90
36654;DHT22;22650;49.350;20.898;2022-11-15T05:31:25;3.20;99.90
36654;DHT22;22650;49.350;20.898;2022-11-15T05:34:17;3.10;99.90
36654;DHT22;22650;49.350;20.898;2022-11-15T05:37:12;3.10;99.90
36654;DHT22;22650;49.350;20.898;2022-11-15T05:40:05;3.10;99.90
36654;DHT22;22650;49.350;20.898;2022-11-15T05:42:59;3.10;99.90
36654;DHT22;22650;49.350;20.898;2022-11-15T05:45:53;3.10;99.90
36654;DHT22;22650;49.350;20.898;2022-11-15T05:48:48;3.10;99.90
36654;DHT22;22650;49.350;20.898;2022-11-15T05:51:42;3.10;99.90
36654;DHT22;22650;49.350;20.898;2022-11-15T05:54:35;3.00;99.90
36654;DHT22;22650;49.350;20.898;2022-11-15T05:57:28;3.00;99.90
36654;DHT22;22650;49.350;20.898;2022-11-15T06:00:21;2.90;99.90
36654;DHT22;22650;49.350;20.898;2022-11-15T06:03:14;3.00;99.90
36654;DHT22;22650;49.350;20.898;2022-11-15T06:06:06;2.90;99.90
36654;DHT22;22650;49.350;20.898;2022-11-15T06:09:05;3.00;99.90
36654;DHT22;22650;49.350;20.898;2022-11-15T06:11:57;3.00;99.90
36654;DHT22;22650;49.350;20.898;2022-11-15T06:14:49;3.00;99.90
36654;DHT22;22650;49.350;20.898;2022-11-15T06:17:41;2.90;99.90
36654;DHT22;22650;49.350;20.898;2022-11-15T06:20:34;3.00;99.90
36654;DHT22;22650;49.350;20.898;2022-11-15T06:23:26;3.00;99.90
36654;DHT22;22650;49.350;20.898;2022-11-15T06:26:18;3.00;99.90
36654;DHT22;22650;49.350;20.898;2022-11-15T06:29:10;3.00;99.90
36654;DHT22;22650;49.350;20.898;2022-11-15T06:32:03;2.90;99.90
36654;DHT22;22650;49.350;20.898;2022-11-15T06:34:55;2.90;99.90
36654;DHT22;22650;49.350;20.898;2022-11-15T06:37:48;2.90;99.90
36654;DHT22;22650;49.350;20.898;2022-11-15T06:40:40;2.80;99.90
36654;DHT22;22650;49.350;20.898;2022-11-15T06:43:32;2.80;99.90
36654;DHT22;22650;49.350;20.898;2022-11-15T06:46:24;2.80;99.90
36654;DHT22;22650;49.350;20.898;2022-11-15T06:49:16;2.80;99.90
36654;DHT22;22650;49.350;20.898;2022-11-15T06:52:08;2.80;99.90
36654;DHT22;22650;49.350;20.898;2022-11-15T06:55:01;2.80;99.90
36654;DHT22;22650;49.350;20.898;2022-11-15T06:57:53;2.70;99.90
36654;DHT22;22650;49.350;20.898;2022-11-15T07:00:45;2.80;99.90
36654;DHT22;22650;49.350;20.898;2022-11-15T07:03:38;2.80;99.90
36654;DHT22;22650;49.350;20.898;2022-11-15T07:06:30;2.80;99.90
36654;DHT22;22650;49.350;20.898;2022-11-15T07:09:22;2.80;99.90
36654;DHT22;22650;49.350;20.898;2022-11-15T07:12:16;2.80;99.90
36654;DHT22;22650;49.350;20.898;2022-11-15T07:15:09;2.80;99.90
36654;DHT22;22650;49.350;20.898;2022-11-15T07:18:01;2.80;99.90
36654;DHT22;22650;49.350;20.898;2022-11-15T07:20:53;2.80;99.90
36654;DHT22;22650;49.350;20.898;2022-11-15T07:23:45;2.90;99.90
36654;DHT22;22650;49.350;20.898;2022-11-15T07:26:37;2.90;99.90
36654;DHT22;22650;49.350;20.898;2022-11-15T07:29:31;2.80;99.90
36654;DHT22;22650;49.350;20.898;2022-11-15T07:32:22;2.90;99.90
36654;DHT22;22650;49.350;20.898;2022-11-15T07:35:14;2.90;99.90
36654;DHT22;22650;49.350;20.898;2022-11-15T07:38:06;2.90;99.90
36654;DHT22;22650;49.350;20.898;2022-11-15T07:41:00;2.90;99.90
36654;DHT22;22650;49.350;20.898;2022-11-15T07:43:51;2.90;99.90
36654;DHT22;22650;49.350;20.898;2022-11-15T07:46:45;2.90;99.90
36654;DHT22;22650;49.350;20.898;2022-11-15T07:49:36;2.90;99.90
36654;DHT22;22650;49.350;20.898;2022-11-15T07:52:28;3.00;99.90
36654;DHT22;22650;49.350;20.898;2022-11-15T07:55:21;3.00;99.90
36654;DHT22;22650;49.350;20.898;2022-11-15T07:58:13;3.10;99.90
36654;DHT22;22650;49.350;20.898;2022-11-15T08:01:05;3.10;99.90
36654;DHT22;22650;49.350;20.898;2022-11-15T08:03:59;3.20;99.90
36654;DHT22;22650;49.350;20.898;2022-11-15T08:06:50;3.20;99.90
36654;DHT22;22650;49.350;20.898;2022-11-15T08:09:42;3.20;99.90
36654;DHT22;22650;49.350;20.898;2022-11-15T08:12:34;3.30;99.90
36654;DHT22;22650;49.350;20.898;2022-11-15T08:15:26;3.40;99.90
36654;DHT22;22650;49.350;20.898;2022-11-15T08:18:18;3.40;99.90
36654;DHT22;22650;49.350;20.898;2022-11-15T08:21:13;3.50;99.90
36654;DHT22;22650;49.350;20.898;2022-11-15T08:24:09;3.50;99.90
36654;DHT22;22650;49.350;20.898;2022-11-15T08:27:01;3.60;99.90
36654;DHT22;22650;49.350;20.898;2022-11-15T08:29:59;3.60;99.90
36654;DHT22;22650;49.350;20.898;2022-11-15T08:32:52;3.70;99.90
36654;DHT22;22650;49.350;20.898;2022-11-15T08:35:44;3.70;99.90
36654;DHT22;22650;49.350;20.898;2022-11-15T08:38:37;3.80;99.90
36654;DHT22;22650;49.350;20.898;2022-11-15T08:41:32;3.80;99.90
36654;DHT22;22650;49.350;20.898;2022-11-15T08:44:25;3.90;99.90
36654;DHT22;22650;49.350;20.898;2022-11-15T08:47:17;3.90;99.90
36654;DHT22;22650;49.350;20.898;2022-11-15T08:50:09;4.00;99.90
36654;DHT22;22650;49.350;20.898;2022-11-15T08:53:05;4.10;99.90
36654;DHT22;22650;49.350;20.898;2022-11-15T08:55:58;4.10;99.90
36654;DHT22;22650;49.350;20.898;2022-11-15T08:58:50;4.20;99.90
36654;DHT22;22650;49.350;20.898;2022-11-15T09:01:42;4.30;99.90
36654;DHT22;22650;49.350;20.898;2022-11-15T09:04:34;4.30;99.90
36654;DHT22;22650;49.350;20.898;2022-11-15T09:07:26;4.30;99.90
36654;DHT22;22650;49.350;20.898;2022-11-15T09:10:20;4.40;99.90
36654;DHT22;22650;49.350;20.898;2022-11-15T09:13:15;4.40;99.90
36654;DHT22;22650;49.350;20.898;2022-11-15T09:16:06;4.50;99.90
36654;DHT22;22650;49.350;20.898;2022-11-15T09:18:59;4.60;99.90
36654;DHT22;22650;49.350;20.898;2022-11-15T09:21:51;4.60;99.90
36654;DHT22;22650;49.350;20.898;2022-11-15T09:24:43;4.70;99.90
36654;DHT22;22650;49.350;20.898;2022-11-15T09:27:35;4.90;99.90
36654;DHT22;22650;49.350;20.898;2022-11-15T09:30:28;5.00;99.90
36654;DHT22;22650;49.350;20.898;2022-11-15T09:33:19;5.00;99.90
36654;DHT22;22650;49.350;20.898;2022-11-15T09:36:12;5.00;99.90
36654;DHT22;22650;49.350;20.898;2022-11-15T09:39:03;5.10;99.90
36654;DHT22;22650;49.350;20.898;2022-11-15T09:42:17;5.20;99.90
36654;DHT22;22650;49.350;20.898;2022-11-15T09:45:18;5.30;99.90
36654;DHT22;22650;49.350;20.898;2022-11-15T09:48:26;5.30;99.90
36654;DHT22;22650;49.350;20.898;2022-11-15T09:51:36;5.40;99.90
36654;DHT22;22650;49.350;20.898;2022-11-15T09:54:27;5.60;99.90
36654;DHT22;22650;49.350;20.898;2022-11-15T09:57:30;5.70;99.90
36654;DHT22;22650;49.350;20.898;2022-11-15T10:00:13;5.80;99.90
36654;DHT22;22650;49.350;20.898;2022-11-15T10:03:11;6.00;99.90
36654;DHT22;22650;49.350;20.898;2022-11-15T10:05:47;6.10;99.90
36654;DHT22;22650;49.350;20.898;2022-11-15T10:08:46;6.30;99.90
36654;DHT22;22650;49.350;20.898;2022-11-15T10:11:23;6.50;99.90
36654;DHT22;22650;49.350;20.898;2022-11-15T10:14:14;6.80;99.90
36654;DHT22;22650;49.350;20.898;2022-11-15T10:17:14;7.00;99.90
36654;DHT22;22650;49.350;20.898;2022-11-15T10:20:03;7.20;99.90
36654;DHT22;22650;49.350;20.898;2022-11-15T10:22:44;7.30;99.90
36654;DHT22;22650;49.350;20.898;2022-11-15T10:25:21;7.40;99.90
36654;DHT22;22650;49.350;20.898;2022-11-15T10:27:57;7.50;99.90
36654;DHT22;22650;49.350;20.898;2022-11-15T10:30:34;7.50;99.90
36654;DHT22;22650;49.350;20.898;2022-11-15T10:33:25;7.70;99.90
36654;DHT22;22650;49.350;20.898;2022-11-15T10:36:16;7.80;99.90
36654;DHT22;22650;49.350;20.898;2022-11-15T10:38:56;8.00;99.90
36654;DHT22;22650;49.350;20.898;2022-11-15T10:41:32;8.20;99.90
36654;DHT22;22650;49.350;20.898;2022-11-15T10:44:22;8.40;99.90
36654;DHT22;22650;49.350;20.898;2022-11-15T10:50:27;8.70;99.90
36654;DHT22;22650;49.350;20.898;2022-11-15T10:53:01;8.90;99.90
36654;DHT22;22650;49.350;20.898;2022-11-15T10:55:38;9.00;99.90
36654;DHT22;22650;49.350;20.898;2022-11-15T10:58:21;9.10;99.90
36654;DHT22;22650;49.350;20.898;2022-11-15T11:00:55;9.20;99.90
36654;DHT22;22650;49.350;20.898;2022-11-15T11:03:43;9.30;99.90
36654;DHT22;22650;49.350;20.898;2022-11-15T11:06:17;9.40;99.90
36654;DHT22;22650;49.350;20.898;2022-11-15T11:08:56;9.40;99.90
36654;DHT22;22650;49.350;20.898;2022-11-15T11:11:44;9.50;99.90
36654;DHT22;22650;49.350;20.898;2022-11-15T11:14:21;9.50;99.90
36654;DHT22;22650;49.350;20.898;2022-11-15T11:17:00;9.60;99.90
36654;DHT22;22650;49.350;20.898;2022-11-15T11:19:44;9.70;99.90
36654;DHT22;22650;49.350;20.898;2022-11-15T11:22:26;9.70;99.90
36654;DHT22;22650;49.350;20.898;2022-11-15T11:25:15;9.80;99.90
36654;DHT22;22650;49.350;20.898;2022-11-15T11:28:05;10.00;99.90
36654;DHT22;22650;49.350;20.898;2022-11-15T11:30:47;10.20;99.90
36654;DHT22;22650;49.350;20.898;2022-11-15T11:33:27;10.50;99.90
36654;DHT22;22650;49.350;20.898;2022-11-15T11:36:12;10.70;99.90
36654;DHT22;22650;49.350;20.898;2022-11-15T11:38:57;11.00;99.90
36654;DHT22;22650;49.350;20.898;2022-11-15T11:41:47;11.10;99.90
36654;DHT22;22650;49.350;20.898;2022-11-15T11:44:33;11.30;99.90
36654;DHT22;22650;49.350;20.898;2022-11-15T11:47:09;11.50;99.90
36654;DHT22;22650;49.350;20.898;2022-11-15T11:49:48;11.70;99.90
36654;DHT22;22650;49.350;20.898;2022-11-15T11:52:25;11.80;99.90
36654;DHT22;22650;49.350;20.898;2022-11-15T11:55:05;11.90;99.90
36654;DHT22;22650;49.350;20.898;2022-11-15T11:57:50;12.00;99.90
36654;DHT22;22650;49.350;20.898;2022-11-15T12:00:27;12.20;99.90
36654;DHT22;22650;49.350;20.898;2022-11-15T12:03:10;12.60;99.90
36654;DHT22;22650;49.350;20.898;2022-11-15T12:05:48;12.90;99.90
36654;DHT22;22650;49.350;20.898;2022-11-15T12:08:32;13.10;99.90
36654;DHT22;22650;49.350;20.898;2022-11-15T12:11:12;13.40;99.90
36654;DHT22;22650;49.350;20.898;2022-11-15T12:13:50;13.60;99.90
36654;DHT22;22650;49.350;20.898;2022-11-15T12:16:29;13.80;99.90
36654;DHT22;22650;49.350;20.898;2022-11-15T12:19:04;13.80;99.90
36654;DHT22;22650;49.350;20.898;2022-11-15T12:21:43;13.80;99.90
36654;DHT22;22650;49.350;20.898;2022-11-15T12:24:20;13.90;99.90
36654;DHT22;22650;49.350;20.898;2022-11-15T12:26:59;13.80;99.90
36654;DHT22;22650;49.350;20.898;2022-11-15T12:29:38;13.60;99.90
36654;DHT22;22650;49.350;20.898;2022-11-15T12:32:24;13.50;99.90
36654;DHT22;22650;49.350;20.898;2022-11-15T12:34:59;13.40;99.90
36654;DHT22;22650;49.350;20.898;2022-11-15T12:37:49;13.30;99.90
36654;DHT22;22650;49.350;20.898;2022-11-15T12:43:41;12.90;99.90
36654;DHT22;22650;49.350;20.898;2022-11-15T12:46:21;12.80;99.90
36654;DHT22;22650;49.350;20.898;2022-11-15T12:48:57;12.60;99.90
36654;DHT22;22650;49.350;20.898;2022-11-15T12:52:04;12.60;99.90
36654;DHT22;22650;49.350;20.898;2022-11-15T12:54:59;12.40;99.90
36654;DHT22;22650;49.350;20.898;2022-11-15T12:57:39;12.30;99.90
36654;DHT22;22650;49.350;20.898;2022-11-15T13:00:37;12.20;99.90
36654;DHT22;22650;49.350;20.898;2022-11-15T13:03:25;12.10;99.90
36654;DHT22;22650;49.350;20.898;2022-11-15T13:06:04;11.90;99.90
36654;DHT22;22650;49.350;20.898;2022-11-15T13:08:47;11.80;99.90
36654;DHT22;22650;49.350;20.898;2022-11-15T13:11:47;11.70;99.90
36654;DHT22;22650;49.350;20.898;2022-11-15T13:14:41;11.70;99.90
36654;DHT22;22650;49.350;20.898;2022-11-15T13:17:35;11.60;99.90
36654;DHT22;22650;49.350;20.898;2022-11-15T13:20:24;11.50;99.90
36654;DHT22;22650;49.350;20.898;2022-11-15T13:23:13;11.50;99.90
36654;DHT22;22650;49.350;20.898;2022-11-15T13:26:10;11.40;99.90
36654;DHT22;22650;49.350;20.898;2022-11-15T13:28:46;11.30;99.90
36654;DHT22;22650;49.350;20.898;2022-11-15T13:31:27;11.30;99.90
36654;DHT22;22650;49.350;20.898;2022-11-15T13:34:13;11.20;99.90
36654;DHT22;22650;49.350;20.898;2022-11-15T13:37:13;11.20;99.90
36654;DHT22;22650;49.350;20.898;2022-11-15T13:40:24;11.10;99.90
36654;DHT22;22650;49.350;20.898;2022-11-15T13:42:59;11.00;99.90
36654;DHT22;22650;49.350;20.898;2022-11-15T13:45:33;10.90;99.90
36654;DHT22;22650;49.350;20.898;2022-11-15T13:48:08;10.90;99.90
36654;DHT22;22650;49.350;20.898;2022-11-15T13:50:41;10.80;99.90
36654;DHT22;22650;49.350;20.898;2022-11-15T13:53:14;10.70;99.90
36654;DHT22;22650;49.350;20.898;2022-11-15T13:55:50;10.60;99.90
36654;DHT22;22650;49.350;20.898;2022-11-15T13:58:24;10.50;99.90
36654;DHT22;22650;49.350;20.898;2022-11-15T14:00:59;10.50;99.90
36654;DHT22;22650;49.350;20.898;2022-11-15T14:03:37;10.40;99.90
36654;DHT22;22650;49.350;20.898;2022-11-15T14:06:15;10.40;99.90
36654;DHT22;22650;49.350;20.898;2022-11-15T14:09:14;10.20;99.90
36654;DHT22;22650;49.350;20.898;2022-11-15T14:11:52;10.10;99.90
36654;DHT22;22650;49.350;20.898;2022-11-15T14:14:27;10.00;99.90
36654;DHT22;22650;49.350;20.898;2022-11-15T14:17:01;10.00;99.90
36654;DHT22;22650;49.350;20.898;2022-11-15T14:19:39;9.90;99.90
36654;DHT22;22650;49.350;20.898;2022-11-15T14:22:19;9.80;99.90
36654;DHT22;22650;49.350;20.898;2022-11-15T14:25:21;9.70;99.90
36654;DHT22;22650;49.350;20.898;2022-11-15T14:28:30;9.60;99.90
36654;DHT22;22650;49.350;20.898;2022-11-15T14:31:11;9.60;99.90
36654;DHT22;22650;49.350;20.898;2022-11-15T14:33:45;9.50;99.90
36654;DHT22;22650;49.350;20.898;2022-11-15T14:36:20;9.40;99.90
36654;DHT22;22650;49.350;20.898;2022-11-15T14:38:53;9.30;99.90
36654;DHT22;22650;49.350;20.898;2022-11-15T14:41:27;9.30;99.90
36654;DHT22;22650;49.350;20.898;2022-11-15T14:44:06;9.30;99.90
36654;DHT22;22650;49.350;20.898;2022-11-15T14:46:39;9.20;99.90
36654;DHT22;22650;49.350;20.898;2022-11-15T14:49:13;9.10;99.90
36654;DHT22;22650;49.350;20.898;2022-11-15T14:51:47;9.10;99.90
36654;DHT22;22650;49.350;20.898;2022-11-15T14:54:20;9.00;99.90
36654;DHT22;22650;49.350;20.898;2022-11-15T14:56:53;8.90;99.90
36654;DHT22;22650;49.350;20.898;2022-11-15T14:59:28;8.90;99.90
36654;DHT22;22650;49.350;20.898;2022-11-15T15:02:01;8.80;99.90
36654;DHT22;22650;49.350;20.898;2022-11-15T15:04:35;8.80;99.90
36654;DHT22;22650;49.350;20.898;2022-11-15T15:07:10;8.80;99.90
36654;DHT22;22650;49.350;20.898;2022-11-15T15:09:44;8.70;99.90
36654;DHT22;22650;49.350;20.898;2022-11-15T15:12:19;8.70;99.90
36654;DHT22;22650;49.350;20.898;2022-11-15T15:14:54;8.60;99.90
36654;DHT22;22650;49.350;20.898;2022-11-15T15:17:28;8.60;99.90
36654;DHT22;22650;49.350;20.898;2022-11-15T15:20:01;8.60;99.90
36654;DHT22;22650;49.350;20.898;2022-11-15T15:22:35;8.50;99.90
36654;DHT22;22650;49.350;20.898;2022-11-15T15:25:20;8.50;99.90
36654;DHT22;22650;49.350;20.898;2022-11-15T15:27:54;8.40;99.90
36654;DHT22;22650;49.350;20.898;2022-11-15T15:30:30;8.40;99.90
36654;DHT22;22650;49.350;20.898;2022-11-15T15:33:03;8.30;99.90
36654;DHT22;22650;49.350;20.898;2022-11-15T15:35:37;8.30;99.90
36654;DHT22;22650;49.350;20.898;2022-11-15T15:38:11;8.20;99.90
36654;DHT22;22650;49.350;20.898;2022-11-15T15:40:45;8.20;99.90
36654;DHT22;22650;49.350;20.898;2022-11-15T15:43:21;8.10;99.90
36654;DHT22;22650;49.350;20.898;2022-11-15T15:45:56;8.10;99.90
36654;DHT22;22650;49.350;20.898;2022-11-15T15:48:29;8.10;99.90
36654;DHT22;22650;49.350;20.898;2022-11-15T15:51:03;8.00;99.90
36654;DHT22;22650;49.350;20.898;2022-11-15T15:53:49;8.10;99.90
36654;DHT22;22650;49.350;20.898;2022-11-15T15:56:29;8.00;99.90
36654;DHT22;22650;49.350;20.898;2022-11-15T15:59:02;8.00;99.90
36654;DHT22;22650;49.350;20.898;2022-11-15T16:01:37;8.00;99.90
36654;DHT22;22650;49.350;20.898;2022-11-15T16:04:10;8.00;99.90
36654;DHT22;22650;49.350;20.898;2022-11-15T16:06:44;7.90;99.90
36654;DHT22;22650;49.350;20.898;2022-11-15T16:09:18;7.90;99.90
36654;DHT22;22650;49.350;20.898;2022-11-15T16:12:12;7.90;99.90
36654;DHT22;22650;49.350;20.898;2022-11-15T16:14:47;7.90;99.90
36654;DHT22;22650;49.350;20.898;2022-11-15T16:17:23;7.80;99.90
36654;DHT22;22650;49.350;20.898;2022-11-15T16:20:05;7.80;99.90
36654;DHT22;22650;49.350;20.898;2022-11-15T16:22:39;7.70;99.90
36654;DHT22;22650;49.350;20.898;2022-11-15T16:25:12;7.70;99.90
36654;DHT22;22650;49.350;20.898;2022-11-15T16:27:46;7.70;99.90
36654;DHT22;22650;49.350;20.898;2022-11-15T16:30:21;7.80;99.90
36654;DHT22;22650;49.350;20.898;2022-11-15T16:32:58;7.70;99.90
36654;DHT22;22650;49.350;20.898;2022-11-15T16:35:32;7.70;99.90
36654;DHT22;22650;49.350;20.898;2022-11-15T16:38:07;7.70;99.90
36654;DHT22;22650;49.350;20.898;2022-11-15T16:40:41;7.70;99.90
36654;DHT22;22650;49.350;20.898;2022-11-15T16:43:14;7.70;99.90
36654;DHT22;22650;49.350;20.898;2022-11-15T16:45:48;7.60;99.90
36654;DHT22;22650;49.350;20.898;2022-11-15T16:48:25;7.60;99.90
36654;DHT22;22650;49.350;20.898;2022-11-15T16:50:59;7.60;99.90
36654;DHT22;22650;49.350;20.898;2022-11-15T16:53:35;7.50;99.90
36654;DHT22;22650;49.350;20.898;2022-11-15T16:56:17;7.50;99.90
36654;DHT22;22650;49.350;20.898;2022-11-15T16:58:51;7.50;99.90
36654;DHT22;22650;49.350;20.898;2022-11-15T17:01:26;7.50;99.90
36654;DHT22;22650;49.350;20.898;2022-11-15T17:04:02;7.40;99.90
36654;DHT22;22650;49.350;20.898;2022-11-15T17:06:45;7.50;99.90
36654;DHT22;22650;49.350;20.898;2022-11-15T17:09:21;7.40;99.90
36654;DHT22;22650;49.350;20.898;2022-11-15T17:11:55;7.40;99.90
36654;DHT22;22650;49.350;20.898;2022-11-15T17:14:29;7.40;99.90
36654;DHT22;22650;49.350;20.898;2022-11-15T17:17:02;7.40;99.90
36654;DHT22;22650;49.350;20.898;2022-11-15T17:19:37;7.40;99.90
36654;DHT22;22650;49.350;20.898;2022-11-15T17:22:10;7.30;99.90
36654;DHT22;22650;49.350;20.898;2022-11-15T17:24:43;7.30;99.90
36654;DHT22;22650;49.350;20.898;2022-11-15T17:27:17;7.20;99.90
36654;DHT22;22650;49.350;20.898;2022-11-15T17:29:52;7.20;99.90
36654;DHT22;22650;49.350;20.898;2022-11-15T17:32:26;7.20;99.90
36654;DHT22;22650;49.350;20.898;2022-11-15T17:35:00;7.20;99.90
36654;DHT22;22650;49.350;20.898;2022-11-15T17:37:34;7.20;99.90
36654;DHT22;22650;49.350;20.898;2022-11-15T17:40:08;7.10;99.90
36654;DHT22;22650;49.350;20.898;2022-11-15T17:42:42;7.10;99.90
36654;DHT22;22650;49.350;20.898;2022-11-15T17:45:16;7.10;99.90